createdAt,value
2023-02-17T00:02:18.223Z,9.40
2023-02-17T00:04:44.885Z,9.40
2023-02-17T00:07:11.483Z,9.50
2023-02-17T00:09:38.133Z,9.50
2023-02-17T00:12:04.906Z,9.40
2023-02-17T00:14:31.589Z,9.40
2023-02-17T00:16:58.191Z,9.40
2023-02-17T00:19:25.386Z,9.50
2023-02-17T00:22:02.354Z,8.80
2023-02-17T00:24:31.158Z,9.40
2023-02-17T00:26:57.807Z,9.50
2023-02-17T00:29:24.527Z,9.50
2023-02-17T00:31:53.355Z,9.50
2023-02-17T00:34:20.410Z,9.50
2023-02-17T00:36:47.591Z,9.50
2023-02-17T00:39:16.111Z,9.40
2023-02-17T00:41:43.719Z,9.40
2023-02-17T00:44:22.354Z,9.50
2023-02-17T00:46:48.977Z,9.50
2023-02-17T00:49:23.177Z,9.50
2023-02-17T00:51:50.400Z,9.50
2023-02-17T00:54:17.951Z,9.50
2023-02-17T00:56:45.099Z,9.60
2023-02-17T00:59:12.038Z,9.60
2023-02-17T01:01:39.357Z,9.60
2023-02-17T01:04:06.106Z,9.60
2023-02-17T01:06:36.552Z,9.50
2023-02-17T01:09:06.232Z,9.60
2023-02-17T01:11:34.797Z,9.60
2023-02-17T01:14:06.132Z,9.60
2023-02-17T01:16:38.605Z,9.60
2023-02-17T01:19:08.236Z,9.60
2023-02-17T01:21:35.556Z,9.60
2023-02-17T01:24:05.060Z,9.60
2023-02-17T01:26:33.742Z,9.50
2023-02-17T01:29:00.533Z,9.60
2023-02-17T01:31:27.846Z,9.60
2023-02-17T01:33:57.043Z,9.60
2023-02-17T01:36:24.097Z,9.60
2023-02-17T01:38:50.927Z,9.60
2023-02-17T01:41:21.028Z,9.60
2023-02-17T01:44:13.460Z,9.70
2023-02-17T01:46:42.980Z,9.70
2023-02-17T01:49:25.674Z,9.60
2023-02-17T01:52:24.775Z,9.70
2023-02-17T01:54:58.501Z,9.70
2023-02-17T01:57:28.472Z,9.70
2023-02-17T01:59:55.594Z,9.70
2023-02-17T02:02:22.465Z,9.70
2023-02-17T02:04:53.069Z,9.70
2023-02-17T02:07:36.530Z,9.70
2023-02-17T02:10:03.676Z,9.70
2023-02-17T02:12:35.468Z,9.70
2023-02-17T02:15:23.356Z,9.70
2023-02-17T02:18:14.651Z,9.70
2023-02-17T02:21:08.924Z,9.80
2023-02-17T02:23:35.454Z,9.80
2023-02-17T02:26:08.089Z,9.80
2023-02-17T02:28:59.593Z,9.80
2023-02-17T02:31:53.713Z,9.80
2023-02-17T02:34:29.895Z,9.80
2023-02-17T02:37:03.953Z,9.80
2023-02-17T02:39:37.674Z,9.90
2023-02-17T02:42:09.846Z,9.90
2023-02-17T02:44:36.477Z,9.90
2023-02-17T02:47:06.894Z,9.90
2023-02-17T02:49:36.499Z,9.90
2023-02-17T02:52:26.676Z,10.00
2023-02-17T02:55:09.306Z,9.90
2023-02-17T02:57:51.165Z,9.90
2023-02-17T03:00:30.091Z,9.90
2023-02-17T03:03:13.898Z,9.90
2023-02-17T03:05:59.672Z,9.90
2023-02-17T03:08:47.198Z,9.90
2023-02-17T03:11:14.447Z,9.90
2023-02-17T03:13:42.343Z,9.70
2023-02-17T03:16:09.394Z,9.90
2023-02-17T03:18:36.446Z,9.90
2023-02-17T03:21:12.318Z,10.00
2023-02-17T03:23:38.934Z,9.90
2023-02-17T03:26:06.198Z,10.00
2023-02-17T03:28:33.019Z,10.10
2023-02-17T03:30:59.731Z,10.00
2023-02-17T03:33:26.499Z,10.00
2023-02-17T03:35:53.159Z,10.00
2023-02-17T03:38:19.760Z,10.00
2023-02-17T03:40:46.419Z,10.00
2023-02-17T03:43:13.081Z,10.00
2023-02-17T03:45:39.688Z,10.00
2023-02-17T03:48:06.345Z,10.00
2023-02-17T03:50:32.944Z,10.10
2023-02-17T03:52:59.644Z,10.00
2023-02-17T03:55:26.315Z,10.10
2023-02-17T03:57:53.081Z,10.10
2023-02-17T04:00:20.166Z,10.10
2023-02-17T04:02:46.769Z,10.10
2023-02-17T04:05:13.451Z,10.10
2023-02-17T04:07:40.066Z,10.10
2023-02-17T04:10:09.409Z,10.10
2023-02-17T04:12:36.353Z,10.20
2023-02-17T04:15:03.097Z,10.20
2023-02-17T04:17:29.698Z,10.10
2023-02-17T04:19:56.336Z,10.10
2023-02-17T04:22:22.966Z,10.20
2023-02-17T04:24:49.834Z,10.20
2023-02-17T04:27:16.516Z,10.20
2023-02-17T04:29:43.197Z,8.70
2023-02-17T04:32:09.896Z,10.20
2023-02-17T04:34:36.643Z,10.20
2023-02-17T04:37:03.320Z,10.20
2023-02-17T04:39:29.912Z,10.30
2023-02-17T04:41:56.559Z,10.30
2023-02-17T04:44:23.144Z,10.30
2023-02-17T04:46:49.772Z,12.10
2023-02-17T04:49:16.371Z,10.30
2023-02-17T04:51:42.976Z,10.30
2023-02-17T04:54:09.623Z,10.30
2023-02-17T04:56:36.226Z,10.30
2023-02-17T04:59:02.849Z,10.40
2023-02-17T05:01:29.546Z,10.40
2023-02-17T05:03:56.180Z,10.30
2023-02-17T05:06:22.766Z,10.40
2023-02-17T05:08:50.666Z,10.40
2023-02-17T05:11:17.279Z,10.40
2023-02-17T05:13:43.873Z,12.40
2023-02-17T05:16:10.577Z,10.40
2023-02-17T05:18:37.166Z,10.40
2023-02-17T05:21:03.979Z,10.40
2023-02-17T05:23:30.588Z,10.40
2023-02-17T05:25:57.258Z,10.30
2023-02-17T05:28:23.885Z,10.40
2023-02-17T05:30:50.642Z,10.40
2023-02-17T05:33:17.296Z,10.40
2023-02-17T05:35:43.951Z,10.40
2023-02-17T05:38:10.615Z,10.40
2023-02-17T05:40:37.235Z,10.50
2023-02-17T05:43:03.822Z,10.50
2023-02-17T05:45:30.427Z,10.40
2023-02-17T05:47:57.030Z,10.40
2023-02-17T05:50:23.798Z,10.50
2023-02-17T05:52:50.425Z,10.50
2023-02-17T05:55:17.155Z,10.50
2023-02-17T05:57:43.776Z,10.50
2023-02-17T06:00:11.246Z,10.50
2023-02-17T06:02:37.886Z,10.50
2023-02-17T06:05:04.739Z,10.50
2023-02-17T06:07:31.421Z,10.50
2023-02-17T06:09:58.078Z,10.50
2023-02-17T06:12:24.829Z,10.50
2023-02-17T06:14:51.452Z,10.50
2023-02-17T06:17:18.191Z,10.80
2023-02-17T06:19:44.816Z,10.50
2023-02-17T06:22:11.475Z,10.50
2023-02-17T06:24:38.177Z,10.50
2023-02-17T06:27:04.802Z,10.50
2023-02-17T06:29:31.557Z,10.50
2023-02-17T06:31:58.290Z,10.50
2023-02-17T06:34:25.230Z,10.50
2023-02-17T06:36:51.964Z,10.50
2023-02-17T06:39:18.578Z,10.40
2023-02-17T06:41:45.389Z,10.40
2023-02-17T06:44:12.548Z,10.50
2023-02-17T06:46:39.189Z,10.40
2023-02-17T06:49:06.125Z,10.40
2023-02-17T06:51:32.737Z,10.40
2023-02-17T06:53:59.359Z,11.00
2023-02-17T06:56:25.958Z,11.80
2023-02-17T06:58:52.604Z,12.40
2023-02-17T07:01:22.112Z,12.50
2023-02-17T07:03:48.948Z,11.70
2023-02-17T07:06:15.647Z,11.20
2023-02-17T07:08:42.297Z,11.00
2023-02-17T07:11:11.116Z,10.80
2023-02-17T07:13:38.448Z,10.70
2023-02-17T07:16:05.741Z,10.60
2023-02-17T07:18:32.601Z,10.60
2023-02-17T07:20:59.526Z,10.60
2023-02-17T07:23:26.514Z,10.60
2023-02-17T07:25:53.171Z,10.60
2023-02-17T07:28:19.849Z,10.60
2023-02-17T07:30:46.498Z,10.60
2023-02-17T07:33:13.275Z,10.60
2023-02-17T07:35:46.078Z,10.60
2023-02-17T07:38:13.046Z,10.60
2023-02-17T07:40:40.166Z,10.50
2023-02-17T07:43:06.824Z,10.60
2023-02-17T07:45:34.134Z,10.50
2023-02-17T07:48:00.863Z,10.50
2023-02-17T07:50:27.509Z,10.50
2023-02-17T07:52:54.084Z,10.50
2023-02-17T07:55:20.659Z,10.50
2023-02-17T07:57:47.287Z,12.10
2023-02-17T08:00:14.503Z,10.60
2023-02-17T08:02:41.187Z,10.60
2023-02-17T08:05:08.049Z,10.60
2023-02-17T08:07:34.880Z,10.60
2023-02-17T08:10:20.119Z,10.60
2023-02-17T08:13:05.453Z,10.60
2023-02-17T08:15:35.013Z,12.00
2023-02-17T08:18:02.253Z,10.60
2023-02-17T08:20:28.855Z,10.60
2023-02-17T08:22:55.488Z,10.50
2023-02-17T08:25:22.495Z,10.50
2023-02-17T08:27:49.205Z,10.50
2023-02-17T08:30:16.075Z,10.50
2023-02-17T08:32:44.476Z,10.50
2023-02-17T08:35:11.125Z,10.60
2023-02-17T08:37:37.725Z,10.60
2023-02-17T08:40:04.941Z,10.60
2023-02-17T08:42:32.334Z,10.60
2023-02-17T08:44:58.942Z,10.60
2023-02-17T08:47:25.648Z,10.60
2023-02-17T08:49:52.260Z,10.60
2023-02-17T08:52:18.860Z,10.60
2023-02-17T08:54:45.703Z,10.60
2023-02-17T08:57:12.626Z,10.60
2023-02-17T08:59:39.292Z,10.50
2023-02-17T09:02:06.598Z,10.50
2023-02-17T09:04:33.298Z,10.50
2023-02-17T09:06:59.973Z,10.50
2023-02-17T09:09:27.389Z,10.50
2023-02-17T09:11:58.569Z,10.50
2023-02-17T09:14:25.852Z,10.50
2023-02-17T09:16:53.545Z,10.50
2023-02-17T09:19:21.209Z,10.50
2023-02-17T09:21:48.411Z,10.60
2023-02-17T09:24:15.990Z,10.60
2023-02-17T09:26:42.664Z,10.60
2023-02-17T09:29:09.610Z,10.60
2023-02-17T09:31:37.121Z,10.50
2023-02-17T09:34:05.013Z,10.60
2023-02-17T09:36:34.909Z,10.60
2023-02-17T09:39:01.852Z,10.60
2023-02-17T09:41:43.117Z,10.70
2023-02-17T09:44:23.873Z,10.60
2023-02-17T09:47:05.657Z,10.60
2023-02-17T09:49:46.661Z,10.60
2023-02-17T09:52:17.486Z,10.70
2023-02-17T09:55:00.838Z,10.60
2023-02-17T09:57:31.943Z,10.70
2023-02-17T10:00:16.188Z,10.70
2023-02-17T10:02:52.562Z,10.70
2023-02-17T10:05:23.173Z,10.70
2023-02-17T10:08:27.767Z,10.70
2023-02-17T10:11:01.806Z,10.70
2023-02-17T10:13:31.391Z,10.70
2023-02-17T10:16:02.983Z,10.70
2023-02-17T10:18:49.126Z,10.80
2023-02-17T10:21:39.301Z,10.70
2023-02-17T10:24:06.115Z,10.80
2023-02-17T10:26:53.517Z,10.80
2023-02-17T10:29:50.906Z,10.80
2023-02-17T10:32:24.087Z,10.90
2023-02-17T10:35:17.452Z,10.90
2023-02-17T10:37:45.875Z,10.90
2023-02-17T10:40:23.582Z,10.90
2023-02-17T10:42:56.132Z,10.90
2023-02-17T10:45:36.270Z,10.90
2023-02-17T10:48:09.305Z,10.90
2023-02-17T10:50:37.962Z,10.90
2023-02-17T10:53:14.824Z,10.90
2023-02-17T10:56:07.378Z,11.00
2023-02-17T10:58:50.217Z,11.00
2023-02-17T11:01:17.418Z,11.00
2023-02-17T11:03:44.106Z,11.00
2023-02-17T11:06:26.214Z,11.00
2023-02-17T11:08:59.771Z,11.10
2023-02-17T11:11:30.454Z,11.10
2023-02-17T11:14:23.688Z,11.10
2023-02-17T11:16:59.261Z,11.10
2023-02-17T11:19:30.299Z,11.10
2023-02-17T11:21:58.771Z,11.10
2023-02-17T11:24:27.448Z,11.10
2023-02-17T11:27:01.485Z,11.10
2023-02-17T11:29:29.386Z,11.10
2023-02-17T11:32:01.828Z,11.20
2023-02-17T11:34:32.964Z,11.10
2023-02-17T11:37:24.363Z,11.20
2023-02-17T11:39:55.700Z,11.20
2023-02-17T11:42:27.652Z,11.10
2023-02-17T11:44:57.556Z,11.10
2023-02-17T11:47:34.912Z,11.10
2023-02-17T11:50:38.895Z,11.20
2023-02-17T11:53:27.934Z,11.10
2023-02-17T11:56:17.461Z,11.20
2023-02-17T11:58:52.701Z,11.20
2023-02-17T12:01:44.574Z,9.90
2023-02-17T12:04:21.416Z,11.20
2023-02-17T12:06:48.344Z,11.30
2023-02-17T12:09:20.500Z,11.20
2023-02-17T12:12:22.171Z,11.20
2023-02-17T12:14:55.855Z,11.20
2023-02-17T12:17:53.279Z,11.20
2023-02-17T12:20:38.496Z,11.20
2023-02-17T12:23:35.461Z,11.30
2023-02-17T12:26:23.853Z,12.30
2023-02-17T12:28:53.443Z,11.30
2023-02-17T12:31:57.897Z,11.30
2023-02-17T12:34:28.371Z,11.30
2023-02-17T12:36:57.506Z,11.30
2023-02-17T12:39:50.726Z,11.30
2023-02-17T12:42:19.859Z,11.40
2023-02-17T12:44:52.546Z,11.30
2023-02-17T12:47:31.878Z,11.30
2023-02-17T12:50:15.305Z,11.40
2023-02-17T12:52:46.098Z,11.40
2023-02-17T12:55:20.943Z,11.30
2023-02-17T12:58:00.402Z,11.30
2023-02-17T13:00:30.236Z,11.30
2023-02-17T13:03:01.960Z,11.30
2023-02-17T13:05:31.255Z,11.30
2023-02-17T13:08:04.442Z,11.40
2023-02-17T13:10:40.145Z,11.30
2023-02-17T13:13:11.474Z,11.30
2023-02-17T13:15:43.050Z,11.30
2023-02-17T13:18:37.251Z,11.30
2023-02-17T13:21:24.643Z,11.40
2023-02-17T13:24:12.658Z,11.40
2023-02-17T13:26:40.773Z,11.40
2023-02-17T13:29:09.501Z,11.40
2023-02-17T13:32:07.668Z,11.40
2023-02-17T13:34:43.431Z,11.40
2023-02-17T13:37:31.677Z,11.50
2023-02-17T13:40:02.706Z,11.50
2023-02-17T13:42:41.212Z,11.50
2023-02-17T13:45:22.857Z,11.60
2023-02-17T13:47:51.235Z,11.60
2023-02-17T13:50:35.628Z,11.60
2023-02-17T13:53:19.872Z,11.60
2023-02-17T13:55:46.682Z,11.60
2023-02-17T13:58:13.279Z,11.60
2023-02-17T14:00:43.647Z,11.60
2023-02-17T14:03:21.146Z,11.60
2023-02-17T14:05:49.904Z,11.60
2023-02-17T14:08:39.176Z,11.70
2023-02-17T14:11:11.081Z,11.70
2023-02-17T14:13:39.690Z,11.70
2023-02-17T14:16:07.469Z,11.70
2023-02-17T14:18:40.238Z,11.80
2023-02-17T14:21:25.001Z,11.80
2023-02-17T14:23:54.268Z,11.90
2023-02-17T14:26:42.224Z,11.90
2023-02-17T14:29:12.620Z,12.00
2023-02-17T14:31:50.522Z,12.00
2023-02-17T14:34:28.125Z,12.00
2023-02-17T14:36:55.644Z,12.00
2023-02-17T14:39:22.264Z,12.00
2023-02-17T14:41:48.896Z,11.90
2023-02-17T14:44:15.482Z,12.00
2023-02-17T14:46:42.219Z,11.90
2023-02-17T14:49:08.876Z,11.80
2023-02-17T14:51:37.392Z,11.70
2023-02-17T14:54:15.064Z,11.70
2023-02-17T14:57:04.862Z,11.70
2023-02-17T14:59:31.535Z,11.60
2023-02-17T15:01:58.538Z,11.60
2023-02-17T15:04:25.308Z,11.60
2023-02-17T15:06:54.578Z,11.60
2023-02-17T15:09:29.261Z,11.60
2023-02-17T15:11:56.924Z,11.50
2023-02-17T15:14:24.121Z,11.50
2023-02-17T15:16:51.083Z,11.40
2023-02-17T15:19:18.066Z,11.40
2023-02-17T15:21:49.050Z,11.40
2023-02-17T15:24:19.151Z,11.30
2023-02-17T15:26:45.810Z,11.30
2023-02-17T15:29:21.408Z,11.20
2023-02-17T15:31:49.334Z,11.20
2023-02-17T15:34:18.334Z,11.10
2023-02-17T15:36:45.440Z,11.00
2023-02-17T15:39:19.978Z,11.00
2023-02-17T15:41:48.841Z,10.90
2023-02-17T15:44:26.036Z,10.90
2023-02-17T15:46:54.863Z,10.80
2023-02-17T15:49:22.328Z,10.70
2023-02-17T15:51:49.362Z,10.70
2023-02-17T15:54:19.140Z,10.70
2023-02-17T15:56:49.090Z,10.60
2023-02-17T15:59:23.345Z,10.70
2023-02-17T16:01:50.787Z,10.60
2023-02-17T16:04:18.086Z,10.50
2023-02-17T16:06:44.800Z,10.50
2023-02-17T16:09:11.420Z,10.40
2023-02-17T16:11:50.955Z,10.40
2023-02-17T16:14:27.360Z,10.30
2023-02-17T16:16:54.089Z,10.30
2023-02-17T16:19:20.666Z,10.20
2023-02-17T16:21:47.249Z,10.20
2023-02-17T16:24:13.855Z,10.20
2023-02-17T16:26:42.024Z,10.10
2023-02-17T16:29:17.529Z,10.10
2023-02-17T16:31:44.669Z,10.10
2023-02-17T16:34:22.601Z,10.00
2023-02-17T16:36:51.234Z,10.00
2023-02-17T16:39:20.366Z,10.00
2023-02-17T16:41:47.875Z,9.90
2023-02-17T16:44:16.642Z,9.90
2023-02-17T16:46:54.391Z,9.80
2023-02-17T16:49:32.408Z,9.80
2023-02-17T16:52:04.946Z,9.80
2023-02-17T16:54:34.414Z,9.80
2023-02-17T16:57:02.087Z,9.70
2023-02-17T16:59:28.708Z,9.70
2023-02-17T17:01:55.339Z,9.70
2023-02-17T17:04:22.176Z,9.60
2023-02-17T17:06:51.621Z,9.60
2023-02-17T17:09:23.544Z,9.60
2023-02-17T17:11:50.803Z,9.60
2023-02-17T17:14:17.393Z,9.60
2023-02-17T17:16:50.613Z,9.60
2023-02-17T17:19:18.149Z,9.50
2023-02-17T17:21:44.795Z,9.50
2023-02-17T17:24:11.519Z,9.50
2023-02-17T17:26:43.899Z,9.50
2023-02-17T17:29:14.431Z,9.40
2023-02-17T17:31:41.253Z,9.40
2023-02-17T17:34:08.861Z,9.40
2023-02-17T17:36:42.621Z,9.50
2023-02-17T17:39:15.526Z,9.40
2023-02-17T17:41:42.245Z,9.40
2023-02-17T17:44:10.430Z,9.30
2023-02-17T17:46:38.936Z,9.30
2023-02-17T17:49:08.802Z,9.30
2023-02-17T17:51:35.763Z,9.30
2023-02-17T17:54:02.670Z,9.30
2023-02-17T17:56:36.356Z,9.20
2023-02-17T17:59:04.261Z,9.20
2023-02-17T18:01:31.262Z,9.20
2023-02-17T18:03:59.442Z,9.20
2023-02-17T18:06:29.862Z,9.20
2023-02-17T18:09:01.194Z,9.10
2023-02-17T18:11:28.224Z,9.10
2023-02-17T18:13:57.963Z,9.10
2023-02-17T18:16:26.952Z,9.10
2023-02-17T18:18:54.562Z,9.10
2023-02-17T18:21:21.322Z,9.10
2023-02-17T18:23:48.463Z,9.00
2023-02-17T18:26:15.278Z,9.00
2023-02-17T18:28:42.352Z,9.00
2023-02-17T18:31:10.890Z,9.00
2023-02-17T18:33:38.115Z,9.00
2023-02-17T18:36:08.431Z,9.00
2023-02-17T18:38:35.273Z,9.00
2023-02-17T18:41:02.011Z,9.10
2023-02-17T18:43:28.616Z,9.10
2023-02-17T18:45:55.351Z,9.00
2023-02-17T18:48:21.965Z,9.00
2023-02-17T18:50:50.384Z,9.10
2023-02-17T18:53:18.119Z,8.90
2023-02-17T18:55:44.790Z,8.90
2023-02-17T18:58:12.477Z,8.90
2023-02-17T19:00:39.204Z,8.90
2023-02-17T19:03:05.870Z,8.80
2023-02-17T19:05:32.548Z,8.80
2023-02-17T19:07:59.159Z,8.80
2023-02-17T19:10:25.784Z,8.80
2023-02-17T19:12:52.423Z,8.90
2023-02-17T19:15:20.889Z,8.80
2023-02-17T19:17:48.720Z,8.80
2023-02-17T19:20:16.968Z,8.80
2023-02-17T19:22:43.855Z,8.80
2023-02-17T19:25:10.901Z,8.80
2023-02-17T19:27:40.620Z,8.70
2023-02-17T19:30:09.148Z,8.70
2023-02-17T19:32:35.764Z,8.70
2023-02-17T19:35:02.740Z,8.70
2023-02-17T19:37:29.381Z,8.70
2023-02-17T19:39:56.161Z,8.70
2023-02-17T19:42:23.058Z,8.70
2023-02-17T19:44:49.712Z,8.70
2023-02-17T19:47:16.634Z,8.70
2023-02-17T19:49:43.340Z,8.60
2023-02-17T19:52:10.526Z,8.60
2023-02-17T19:54:37.182Z,8.60
2023-02-17T19:57:03.859Z,8.70
2023-02-17T19:59:32.448Z,8.60
2023-02-17T20:01:59.174Z,8.60
2023-02-17T20:04:26.010Z,8.60
2023-02-17T20:06:53.144Z,8.60
2023-02-17T20:09:22.257Z,8.60
2023-02-17T20:11:49.758Z,8.60
2023-02-17T20:14:16.421Z,8.60
2023-02-17T20:16:43.081Z,8.60
2023-02-17T20:19:09.807Z,8.60
2023-02-17T20:21:38.505Z,8.60
2023-02-17T20:24:05.675Z,8.60
2023-02-17T20:26:34.635Z,8.60
2023-02-17T20:29:01.703Z,8.60
2023-02-17T20:31:28.815Z,8.60
2023-02-17T20:33:55.791Z,8.60
2023-02-17T20:36:23.086Z,8.60
2023-02-17T20:38:50.058Z,8.60
2023-02-17T20:41:19.294Z,9.50
2023-02-17T20:43:46.156Z,8.70
2023-02-17T20:46:16.605Z,8.50
2023-02-17T20:48:43.222Z,8.50
2023-02-17T20:51:09.897Z,8.50
2023-02-17T20:53:36.581Z,8.50
2023-02-17T20:56:03.343Z,8.40
2023-02-17T20:58:30.024Z,8.40
2023-02-17T21:00:56.715Z,7.70
2023-02-17T21:03:23.349Z,8.40
2023-02-17T21:05:50.544Z,8.40
2023-02-17T21:08:17.269Z,8.40
2023-02-17T21:10:43.921Z,8.40
2023-02-17T21:13:11.704Z,8.30
2023-02-17T21:15:39.376Z,8.40
2023-02-17T21:18:06.041Z,8.30
2023-02-17T21:20:34.007Z,8.40
2023-02-17T21:23:01.022Z,8.30
2023-02-17T21:25:28.104Z,9.60
2023-02-17T21:27:54.738Z,8.30
2023-02-17T21:30:21.526Z,8.30
2023-02-17T21:32:48.337Z,8.30
2023-02-17T21:35:14.972Z,8.20
2023-02-17T21:37:41.691Z,8.30
2023-02-17T21:40:09.462Z,8.20
2023-02-17T21:42:58.408Z,8.20
2023-02-17T21:45:25.555Z,8.90
2023-02-17T21:47:52.209Z,9.40
2023-02-17T21:50:19.381Z,8.70
2023-02-17T21:52:46.067Z,8.50
2023-02-17T21:55:12.819Z,8.30
2023-02-17T21:57:39.439Z,8.30
2023-02-17T22:00:06.924Z,8.20
2023-02-17T22:02:33.555Z,8.10
2023-02-17T22:05:00.383Z,8.10
2023-02-17T22:07:27.074Z,8.10
2023-02-17T22:09:53.720Z,8.20
2023-02-17T22:12:20.374Z,8.20
2023-02-17T22:14:47.001Z,8.10
2023-02-17T22:17:13.628Z,8.10
2023-02-17T22:19:40.295Z,8.10
2023-02-17T22:22:06.906Z,8.60
2023-02-17T22:24:33.687Z,8.10
2023-02-17T22:27:00.611Z,8.10
2023-02-17T22:29:27.308Z,8.10
2023-02-17T22:31:56.024Z,8.10
2023-02-17T22:34:23.854Z,8.10
2023-02-17T22:36:50.437Z,8.00
2023-02-17T22:39:17.050Z,8.00
2023-02-17T22:41:43.665Z,8.00
2023-02-17T22:44:10.337Z,8.00
2023-02-17T22:46:36.986Z,8.00
2023-02-17T22:49:03.706Z,8.00
2023-02-17T22:51:34.349Z,8.00
2023-02-17T22:54:01.452Z,8.00
2023-02-17T22:56:29.115Z,8.00
2023-02-17T22:58:57.935Z,8.00
2023-02-17T23:01:24.979Z,8.00
2023-02-17T23:03:54.339Z,8.00
2023-02-17T23:06:27.800Z,8.00
2023-02-17T23:08:55.276Z,8.00
2023-02-17T23:11:43.770Z,8.20
2023-02-17T23:14:11.866Z,8.00
2023-02-17T23:16:38.753Z,8.00
2023-02-17T23:19:08.007Z,8.00
2023-02-17T23:21:34.933Z,8.00
2023-02-17T23:24:01.934Z,8.00
2023-02-17T23:26:28.658Z,8.00
2023-02-17T23:28:55.941Z,6.30
2023-02-17T23:31:22.651Z,7.90
2023-02-17T23:33:49.359Z,7.90
2023-02-17T23:36:16.117Z,8.00
2023-02-17T23:38:43.180Z,7.90
2023-02-17T23:41:10.782Z,8.00
2023-02-17T23:43:37.651Z,8.00
2023-02-17T23:46:04.358Z,7.90
2023-02-17T23:48:31.028Z,7.90
2023-02-17T23:51:03.070Z,8.00
2023-02-17T23:53:30.751Z,7.90
2023-02-17T23:56:05.264Z,7.90
2023-02-17T23:58:32.465Z,7.90
